Calmer, Arkansas
Current Conditions -  °F | °C
As of 8:53 PM on Saturday 25 Oct 2014 (Local Time) from KPBF Reporting Station
Clear Clear  
Wind Chill: 68°   Ceiling: Unl
Heat Index: 68°   Visibility: 8mi
Dew Point: 64°   Wind: 5mph
Humidity: 87%   Direction: 200°SSW
Pressure: 30.05"   Gusts: NA
Location:  33.947°N, 92.1633°W
Report Text: KPBF 260153Z AUTO 20004KT 8SM CLR 20/18 A3005 RMK AO2 SLP172 T02000178
Loading
Personal Weather Stations






























Interactive Weather Map
Tropical Storm Tracking
New forecast layout! Learn more

10-Day Weather Forecast

Advertisements
Track Severe Weather on mobile